sensor_id;sensor_type;location;lat;lon;timestamp;temperature;humidity
21662;DHT22;10992;48.170;8.596;2023-07-20T00:00:42;16.60;99.90
21662;DHT22;10992;48.170;8.596;2023-07-20T00:03:13;16.50;99.90
21662;DHT22;10992;48.170;8.596;2023-07-20T00:05:43;16.50;99.90
21662;DHT22;10992;48.170;8.596;2023-07-20T00:08:11;16.40;99.90
21662;DHT22;10992;48.170;8.596;2023-07-20T00:10:40;16.30;99.90
21662;DHT22;10992;48.170;8.596;2023-07-20T00:13:07;16.20;99.90
21662;DHT22;10992;48.170;8.596;2023-07-20T00:15:34;16.10;99.90
21662;DHT22;10992;48.170;8.596;2023-07-20T00:18:01;16.00;99.90
21662;DHT22;10992;48.170;8.596;2023-07-20T00:20:28;16.00;99.90
21662;DHT22;10992;48.170;8.596;2023-07-20T00:22:55;15.90;99.90
21662;DHT22;10992;48.170;8.596;2023-07-20T00:25:24;15.90;99.90
21662;DHT22;10992;48.170;8.596;2023-07-20T00:27:51;15.90;99.90
21662;DHT22;10992;48.170;8.596;2023-07-20T00:30:20;15.90;99.90
21662;DHT22;10992;48.170;8.596;2023-07-20T00:32:47;15.90;99.90
21662;DHT22;10992;48.170;8.596;2023-07-20T00:35:15;15.90;99.90
21662;DHT22;10992;48.170;8.596;2023-07-20T00:37:42;16.00;99.90
21662;DHT22;10992;48.170;8.596;2023-07-20T00:40:09;16.00;99.90
21662;DHT22;10992;48.170;8.596;2023-07-20T00:42:36;16.10;99.90
21662;DHT22;10992;48.170;8.596;2023-07-20T00:45:03;16.20;99.90
21662;DHT22;10992;48.170;8.596;2023-07-20T00:47:31;16.10;99.90
21662;DHT22;10992;48.170;8.596;2023-07-20T00:49:58;16.20;99.90
21662;DHT22;10992;48.170;8.596;2023-07-20T00:52:25;16.10;99.90
21662;DHT22;10992;48.170;8.596;2023-07-20T00:54:54;16.10;99.90
21662;DHT22;10992;48.170;8.596;2023-07-20T00:57:24;16.10;99.90
21662;DHT22;10992;48.170;8.596;2023-07-20T00:59:54;16.00;99.90
21662;DHT22;10992;48.170;8.596;2023-07-20T01:02:23;15.90;99.90
21662;DHT22;10992;48.170;8.596;2023-07-20T01:04:50;15.80;99.90
21662;DHT22;10992;48.170;8.596;2023-07-20T01:12:52;15.50;99.90
21662;DHT22;10992;48.170;8.596;2023-07-20T01:15:20;15.50;99.90
21662;DHT22;10992;48.170;8.596;2023-07-20T01:17:47;15.40;99.90
21662;DHT22;10992;48.170;8.596;2023-07-20T01:20:16;15.40;99.90
21662;DHT22;10992;48.170;8.596;2023-07-20T01:31:28;15.30;99.90
21662;DHT22;10992;48.170;8.596;2023-07-20T01:33:58;15.30;99.90
21662;DHT22;10992;48.170;8.596;2023-07-20T01:36:33;15.30;99.90
21662;DHT22;10992;48.170;8.596;2023-07-20T01:39:02;15.30;99.90
21662;DHT22;10992;48.170;8.596;2023-07-20T01:41:29;15.30;99.90
21662;DHT22;10992;48.170;8.596;2023-07-20T01:43:59;15.30;99.90
21662;DHT22;10992;48.170;8.596;2023-07-20T01:46:26;15.30;99.90
21662;DHT22;10992;48.170;8.596;2023-07-20T01:48:54;15.20;99.90
21662;DHT22;10992;48.170;8.596;2023-07-20T01:51:22;15.20;99.90
21662;DHT22;10992;48.170;8.596;2023-07-20T01:53:48;15.20;99.90
21662;DHT22;10992;48.170;8.596;2023-07-20T01:56:15;15.10;99.90
21662;DHT22;10992;48.170;8.596;2023-07-20T01:58:43;15.10;99.90
21662;DHT22;10992;48.170;8.596;2023-07-20T02:01:10;15.10;99.90
21662;DHT22;10992;48.170;8.596;2023-07-20T02:03:37;15.10;99.90
21662;DHT22;10992;48.170;8.596;2023-07-20T02:06:04;15.00;99.90
21662;DHT22;10992;48.170;8.596;2023-07-20T02:08:31;14.90;99.90
21662;DHT22;10992;48.170;8.596;2023-07-20T02:10:58;14.90;99.90
21662;DHT22;10992;48.170;8.596;2023-07-20T02:13:25;14.90;99.90
21662;DHT22;10992;48.170;8.596;2023-07-20T02:15:52;14.80;99.90
21662;DHT22;10992;48.170;8.596;2023-07-20T02:18:20;14.70;99.90
21662;DHT22;10992;48.170;8.596;2023-07-20T02:20:47;14.60;99.90
21662;DHT22;10992;48.170;8.596;2023-07-20T02:23:14;14.60;99.90
21662;DHT22;10992;48.170;8.596;2023-07-20T02:25:41;14.50;99.90
21662;DHT22;10992;48.170;8.596;2023-07-20T02:28:08;14.50;99.90
21662;DHT22;10992;48.170;8.596;2023-07-20T02:30:39;14.50;99.90
21662;DHT22;10992;48.170;8.596;2023-07-20T02:33:07;14.50;99.90
21662;DHT22;10992;48.170;8.596;2023-07-20T02:35:34;14.50;99.90
21662;DHT22;10992;48.170;8.596;2023-07-20T02:38:01;14.40;99.90
21662;DHT22;10992;48.170;8.596;2023-07-20T02:40:28;14.40;99.90
21662;DHT22;10992;48.170;8.596;2023-07-20T02:42:54;14.40;99.90
21662;DHT22;10992;48.170;8.596;2023-07-20T02:45:21;14.30;99.90
21662;DHT22;10992;48.170;8.596;2023-07-20T02:47:48;14.30;99.90
21662;DHT22;10992;48.170;8.596;2023-07-20T02:50:16;14.30;99.90
21662;DHT22;10992;48.170;8.596;2023-07-20T02:52:43;14.30;99.90
21662;DHT22;10992;48.170;8.596;2023-07-20T02:55:10;14.20;99.90
21662;DHT22;10992;48.170;8.596;2023-07-20T02:57:37;14.20;99.90
21662;DHT22;10992;48.170;8.596;2023-07-20T03:00:04;14.30;99.90
21662;DHT22;10992;48.170;8.596;2023-07-20T03:02:33;14.30;99.90
21662;DHT22;10992;48.170;8.596;2023-07-20T03:04:59;14.30;99.90
21662;DHT22;10992;48.170;8.596;2023-07-20T03:07:28;14.30;99.90
21662;DHT22;10992;48.170;8.596;2023-07-20T03:09:55;14.20;99.90
21662;DHT22;10992;48.170;8.596;2023-07-20T03:12:22;14.10;99.90
21662;DHT22;10992;48.170;8.596;2023-07-20T03:14:49;14.20;99.90
21662;DHT22;10992;48.170;8.596;2023-07-20T03:17:16;14.30;99.90
21662;DHT22;10992;48.170;8.596;2023-07-20T03:19:45;14.20;99.90
21662;DHT22;10992;48.170;8.596;2023-07-20T03:22:12;14.20;99.90
21662;DHT22;10992;48.170;8.596;2023-07-20T03:24:39;14.10;99.90
21662;DHT22;10992;48.170;8.596;2023-07-20T03:27:06;14.10;99.90
21662;DHT22;10992;48.170;8.596;2023-07-20T03:29:33;14.00;99.90
21662;DHT22;10992;48.170;8.596;2023-07-20T03:32:00;14.00;99.90
21662;DHT22;10992;48.170;8.596;2023-07-20T03:34:27;13.90;99.90
21662;DHT22;10992;48.170;8.596;2023-07-20T03:36:54;13.90;99.90
21662;DHT22;10992;48.170;8.596;2023-07-20T03:39:22;13.80;99.90
21662;DHT22;10992;48.170;8.596;2023-07-20T03:41:49;13.90;99.90
21662;DHT22;10992;48.170;8.596;2023-07-20T03:44:16;13.90;99.90
21662;DHT22;10992;48.170;8.596;2023-07-20T03:46:44;13.90;99.90
21662;DHT22;10992;48.170;8.596;2023-07-20T03:49:11;13.90;99.90
21662;DHT22;10992;48.170;8.596;2023-07-20T03:51:38;13.90;99.90
21662;DHT22;10992;48.170;8.596;2023-07-20T03:54:05;13.90;99.90
21662;DHT22;10992;48.170;8.596;2023-07-20T03:56:32;14.00;99.90
21662;DHT22;10992;48.170;8.596;2023-07-20T03:59:02;14.20;99.90
21662;DHT22;10992;48.170;8.596;2023-07-20T04:01:29;14.30;99.90
21662;DHT22;10992;48.170;8.596;2023-07-20T04:03:56;14.40;99.90
21662;DHT22;10992;48.170;8.596;2023-07-20T04:06:24;14.50;99.90
21662;DHT22;10992;48.170;8.596;2023-07-20T04:08:51;14.60;99.90
21662;DHT22;10992;48.170;8.596;2023-07-20T04:11:18;14.70;99.90
21662;DHT22;10992;48.170;8.596;2023-07-20T04:13:45;14.70;99.90
21662;DHT22;10992;48.170;8.596;2023-07-20T04:16:12;14.80;99.90
21662;DHT22;10992;48.170;8.596;2023-07-20T04:18:39;14.90;99.90
21662;DHT22;10992;48.170;8.596;2023-07-20T04:21:08;15.00;99.90
21662;DHT22;10992;48.170;8.596;2023-07-20T04:23:35;15.10;99.90
21662;DHT22;10992;48.170;8.596;2023-07-20T04:26:03;15.10;99.90
21662;DHT22;10992;48.170;8.596;2023-07-20T04:28:30;15.20;99.90
21662;DHT22;10992;48.170;8.596;2023-07-20T04:31:12;15.20;99.90
21662;DHT22;10992;48.170;8.596;2023-07-20T04:33:39;15.20;99.90
21662;DHT22;10992;48.170;8.596;2023-07-20T04:36:07;15.30;99.90
21662;DHT22;10992;48.170;8.596;2023-07-20T04:38:35;15.30;99.90
21662;DHT22;10992;48.170;8.596;2023-07-20T04:41:15;15.50;99.90
21662;DHT22;10992;48.170;8.596;2023-07-20T04:43:45;15.60;99.90
21662;DHT22;10992;48.170;8.596;2023-07-20T04:46:15;15.70;99.90
21662;DHT22;10992;48.170;8.596;2023-07-20T04:48:45;15.90;99.90
21662;DHT22;10992;48.170;8.596;2023-07-20T04:51:12;15.90;99.90
21662;DHT22;10992;48.170;8.596;2023-07-20T04:53:39;16.10;99.90
21662;DHT22;10992;48.170;8.596;2023-07-20T04:56:08;16.20;99.90
21662;DHT22;10992;48.170;8.596;2023-07-20T04:58:36;16.40;99.90
21662;DHT22;10992;48.170;8.596;2023-07-20T05:01:03;16.50;99.90
21662;DHT22;10992;48.170;8.596;2023-07-20T05:03:31;16.60;99.90
21662;DHT22;10992;48.170;8.596;2023-07-20T05:05:58;16.70;99.90
21662;DHT22;10992;48.170;8.596;2023-07-20T05:08:25;16.80;99.90
21662;DHT22;10992;48.170;8.596;2023-07-20T05:10:53;16.90;99.90
21662;DHT22;10992;48.170;8.596;2023-07-20T05:13:20;17.00;99.90
21662;DHT22;10992;48.170;8.596;2023-07-20T05:15:51;17.10;99.90
21662;DHT22;10992;48.170;8.596;2023-07-20T05:18:20;17.30;99.90
21662;DHT22;10992;48.170;8.596;2023-07-20T05:20:49;17.50;99.90
21662;DHT22;10992;48.170;8.596;2023-07-20T05:23:18;17.70;99.90
21662;DHT22;10992;48.170;8.596;2023-07-20T05:25:47;18.30;99.90
21662;DHT22;10992;48.170;8.596;2023-07-20T05:28:14;18.40;99.90
21662;DHT22;10992;48.170;8.596;2023-07-20T05:30:41;18.40;99.90
21662;DHT22;10992;48.170;8.596;2023-07-20T05:33:08;18.20;99.90
21662;DHT22;10992;48.170;8.596;2023-07-20T05:35:36;18.30;99.90
21662;DHT22;10992;48.170;8.596;2023-07-20T05:38:03;18.40;99.90
21662;DHT22;10992;48.170;8.596;2023-07-20T05:40:32;18.50;99.90
21662;DHT22;10992;48.170;8.596;2023-07-20T05:42:59;18.40;99.90
21662;DHT22;10992;48.170;8.596;2023-07-20T05:45:27;18.40;99.90
21662;DHT22;10992;48.170;8.596;2023-07-20T05:47:54;18.60;99.90
21662;DHT22;10992;48.170;8.596;2023-07-20T05:50:21;19.60;99.90
21662;DHT22;10992;48.170;8.596;2023-07-20T05:52:48;21.10;99.90
21662;DHT22;10992;48.170;8.596;2023-07-20T05:55:15;22.90;99.90
21662;DHT22;10992;48.170;8.596;2023-07-20T05:57:42;24.00;99.90
21662;DHT22;10992;48.170;8.596;2023-07-20T06:00:10;25.60;99.90
21662;DHT22;10992;48.170;8.596;2023-07-20T06:02:41;26.50;99.90
21662;DHT22;10992;48.170;8.596;2023-07-20T06:05:09;26.30;99.90
21662;DHT22;10992;48.170;8.596;2023-07-20T06:07:39;24.60;99.90
21662;DHT22;10992;48.170;8.596;2023-07-20T06:10:06;23.40;99.90
21662;DHT22;10992;48.170;8.596;2023-07-20T06:12:33;23.50;99.90
21662;DHT22;10992;48.170;8.596;2023-07-20T06:15:02;22.80;99.90
21662;DHT22;10992;48.170;8.596;2023-07-20T06:17:30;22.00;99.90
21662;DHT22;10992;48.170;8.596;2023-07-20T06:19:58;22.70;99.90
21662;DHT22;10992;48.170;8.596;2023-07-20T06:22:25;24.30;99.90
21662;DHT22;10992;48.170;8.596;2023-07-20T06:24:51;23.90;99.90
21662;DHT22;10992;48.170;8.596;2023-07-20T06:27:18;23.40;99.90
21662;DHT22;10992;48.170;8.596;2023-07-20T06:29:45;24.40;99.90
21662;DHT22;10992;48.170;8.596;2023-07-20T06:32:12;26.10;99.90
21662;DHT22;10992;48.170;8.596;2023-07-20T06:34:40;27.10;99.90
21662;DHT22;10992;48.170;8.596;2023-07-20T06:37:07;27.80;99.90
21662;DHT22;10992;48.170;8.596;2023-07-20T06:39:34;27.90;99.90
21662;DHT22;10992;48.170;8.596;2023-07-20T06:42:04;28.80;99.90
21662;DHT22;10992;48.170;8.596;2023-07-20T06:44:31;28.30;99.90
21662;DHT22;10992;48.170;8.596;2023-07-20T06:46:58;26.80;99.90
21662;DHT22;10992;48.170;8.596;2023-07-20T06:49:26;25.80;99.90
21662;DHT22;10992;48.170;8.596;2023-07-20T06:51:53;24.50;99.90
21662;DHT22;10992;48.170;8.596;2023-07-20T06:54:20;24.70;99.90
21662;DHT22;10992;48.170;8.596;2023-07-20T06:56:50;26.30;99.90
21662;DHT22;10992;48.170;8.596;2023-07-20T06:59:36;28.20;99.90
21662;DHT22;10992;48.170;8.596;2023-07-20T07:02:08;29.70;99.90
21662;DHT22;10992;48.170;8.596;2023-07-20T07:04:41;30.30;99.90
21662;DHT22;10992;48.170;8.596;2023-07-20T07:07:09;30.00;99.90
21662;DHT22;10992;48.170;8.596;2023-07-20T07:09:36;29.20;99.90
21662;DHT22;10992;48.170;8.596;2023-07-20T07:12:04;28.90;99.90
21662;DHT22;10992;48.170;8.596;2023-07-20T07:14:31;28.40;99.90
21662;DHT22;10992;48.170;8.596;2023-07-20T07:16:59;28.40;99.90
21662;DHT22;10992;48.170;8.596;2023-07-20T07:19:30;28.70;98.80
21662;DHT22;10992;48.170;8.596;2023-07-20T07:21:57;28.80;99.30
21662;DHT22;10992;48.170;8.596;2023-07-20T07:24:26;28.50;99.70
21662;DHT22;10992;48.170;8.596;2023-07-20T07:26:56;28.80;98.60
21662;DHT22;10992;48.170;8.596;2023-07-20T07:29:22;27.20;98.70
21662;DHT22;10992;48.170;8.596;2023-07-20T07:31:49;25.90;99.90
21662;DHT22;10992;48.170;8.596;2023-07-20T07:34:16;26.90;99.90
21662;DHT22;10992;48.170;8.596;2023-07-20T07:36:44;28.20;98.50
21662;DHT22;10992;48.170;8.596;2023-07-20T07:39:11;29.20;96.90
21662;DHT22;10992;48.170;8.596;2023-07-20T07:41:41;30.00;97.40
21662;DHT22;10992;48.170;8.596;2023-07-20T07:44:08;31.10;96.30
21662;DHT22;10992;48.170;8.596;2023-07-20T07:46:35;31.70;96.10
21662;DHT22;10992;48.170;8.596;2023-07-20T07:49:02;31.60;95.90
21662;DHT22;10992;48.170;8.596;2023-07-20T07:51:29;31.50;94.60
21662;DHT22;10992;48.170;8.596;2023-07-20T07:53:56;30.20;95.10
21662;DHT22;10992;48.170;8.596;2023-07-20T07:56:22;29.70;94.30
21662;DHT22;10992;48.170;8.596;2023-07-20T07:58:51;28.10;97.30
21662;DHT22;10992;48.170;8.596;2023-07-20T08:01:18;28.40;96.60
21662;DHT22;10992;48.170;8.596;2023-07-20T08:03:45;29.00;96.60
21662;DHT22;10992;48.170;8.596;2023-07-20T08:06:14;27.70;98.00
21662;DHT22;10992;48.170;8.596;2023-07-20T08:08:45;27.60;97.40
21662;DHT22;10992;48.170;8.596;2023-07-20T08:11:12;27.10;97.30
21662;DHT22;10992;48.170;8.596;2023-07-20T08:13:41;26.20;98.10
21662;DHT22;10992;48.170;8.596;2023-07-20T08:16:08;25.80;99.50
21662;DHT22;10992;48.170;8.596;2023-07-20T08:18:35;25.80;99.40
21662;DHT22;10992;48.170;8.596;2023-07-20T08:21:02;25.50;99.40
21662;DHT22;10992;48.170;8.596;2023-07-20T08:23:30;25.70;99.80
21662;DHT22;10992;48.170;8.596;2023-07-20T08:25:57;27.00;99.20
21662;DHT22;10992;48.170;8.596;2023-07-20T08:28:24;28.40;98.00
21662;DHT22;10992;48.170;8.596;2023-07-20T08:30:50;29.70;96.80
21662;DHT22;10992;48.170;8.596;2023-07-20T08:33:18;29.90;95.70
21662;DHT22;10992;48.170;8.596;2023-07-20T08:35:49;29.00;95.20
21662;DHT22;10992;48.170;8.596;2023-07-20T08:38:16;29.00;96.10
21662;DHT22;10992;48.170;8.596;2023-07-20T08:40:45;28.60;96.50
21662;DHT22;10992;48.170;8.596;2023-07-20T08:43:12;28.90;97.40
21662;DHT22;10992;48.170;8.596;2023-07-20T08:45:40;29.60;95.80
21662;DHT22;10992;48.170;8.596;2023-07-20T08:48:08;29.90;95.40
21662;DHT22;10992;48.170;8.596;2023-07-20T08:50:35;28.60;95.00
21662;DHT22;10992;48.170;8.596;2023-07-20T08:53:02;27.20;96.00
21662;DHT22;10992;48.170;8.596;2023-07-20T08:55:30;26.30;98.00
21662;DHT22;10992;48.170;8.596;2023-07-20T08:57:59;25.70;98.60
21662;DHT22;10992;48.170;8.596;2023-07-20T09:00:27;25.00;98.50
21662;DHT22;10992;48.170;8.596;2023-07-20T09:02:57;25.00;98.20
21662;DHT22;10992;48.170;8.596;2023-07-20T09:05:26;24.80;98.30
21662;DHT22;10992;48.170;8.596;2023-07-20T09:07:53;24.70;99.30
21662;DHT22;10992;48.170;8.596;2023-07-20T09:10:21;24.60;99.40
21662;DHT22;10992;48.170;8.596;2023-07-20T09:12:48;24.20;99.10
21662;DHT22;10992;48.170;8.596;2023-07-20T09:15:16;23.40;99.90
21662;DHT22;10992;48.170;8.596;2023-07-20T09:17:47;23.00;99.90
21662;DHT22;10992;48.170;8.596;2023-07-20T09:20:17;23.50;99.90
21662;DHT22;10992;48.170;8.596;2023-07-20T09:22:48;23.70;99.90
21662;DHT22;10992;48.170;8.596;2023-07-20T09:25:18;24.00;99.90
21662;DHT22;10992;48.170;8.596;2023-07-20T09:27:49;23.70;99.90
21662;DHT22;10992;48.170;8.596;2023-07-20T09:30:18;23.70;99.90
21662;DHT22;10992;48.170;8.596;2023-07-20T09:32:49;23.10;99.90
21662;DHT22;10992;48.170;8.596;2023-07-20T09:35:21;23.10;99.90
21662;DHT22;10992;48.170;8.596;2023-07-20T09:37:58;23.60;99.90
21662;DHT22;10992;48.170;8.596;2023-07-20T09:40:28;24.30;99.90
21662;DHT22;10992;48.170;8.596;2023-07-20T09:42:59;24.30;99.90
21662;DHT22;10992;48.170;8.596;2023-07-20T09:45:42;24.50;99.90
21662;DHT22;10992;48.170;8.596;2023-07-20T09:48:12;25.10;99.80
21662;DHT22;10992;48.170;8.596;2023-07-20T09:50:52;26.00;99.80
21662;DHT22;10992;48.170;8.596;2023-07-20T09:53:20;26.60;99.60
21662;DHT22;10992;48.170;8.596;2023-07-20T09:55:48;27.40;98.70
21662;DHT22;10992;48.170;8.596;2023-07-20T09:58:16;26.40;97.40
21662;DHT22;10992;48.170;8.596;2023-07-20T10:00:46;26.00;98.70
21662;DHT22;10992;48.170;8.596;2023-07-20T10:03:29;27.30;97.90
21662;DHT22;10992;48.170;8.596;2023-07-20T10:06:05;28.10;96.70
21662;DHT22;10992;48.170;8.596;2023-07-20T10:08:37;27.00;96.30
21662;DHT22;10992;48.170;8.596;2023-07-20T10:11:10;26.60;97.80
21662;DHT22;10992;48.170;8.596;2023-07-20T10:13:39;25.90;98.40
21662;DHT22;10992;48.170;8.596;2023-07-20T10:16:11;25.50;98.00
21662;DHT22;10992;48.170;8.596;2023-07-20T10:21:25;25.20;99.80
21662;DHT22;10992;48.170;8.596;2023-07-20T10:23:59;26.50;97.80
21662;DHT22;10992;48.170;8.596;2023-07-20T10:26:27;27.40;96.80
21662;DHT22;10992;48.170;8.596;2023-07-20T10:28:54;26.60;97.90
21662;DHT22;10992;48.170;8.596;2023-07-20T10:31:23;26.60;98.20
21662;DHT22;10992;48.170;8.596;2023-07-20T10:33:50;27.30;98.00
21662;DHT22;10992;48.170;8.596;2023-07-20T10:36:25;27.70;96.80
21662;DHT22;10992;48.170;8.596;2023-07-20T10:38:58;26.50;97.30
21662;DHT22;10992;48.170;8.596;2023-07-20T10:41:31;26.00;98.20
21662;DHT22;10992;48.170;8.596;2023-07-20T10:44:04;25.90;99.90
21662;DHT22;10992;48.170;8.596;2023-07-20T10:46:43;26.50;98.50
21662;DHT22;10992;48.170;8.596;2023-07-20T10:49:14;26.90;99.70
21662;DHT22;10992;48.170;8.596;2023-07-20T10:51:43;27.80;98.40
21662;DHT22;10992;48.170;8.596;2023-07-20T10:56:47;28.70;98.20
21662;DHT22;10992;48.170;8.596;2023-07-20T10:59:40;29.10;94.80
21662;DHT22;10992;48.170;8.596;2023-07-20T11:02:08;27.70;96.30
21662;DHT22;10992;48.170;8.596;2023-07-20T11:04:39;27.40;98.00
21662;DHT22;10992;48.170;8.596;2023-07-20T11:07:06;26.90;96.20
21662;DHT22;10992;48.170;8.596;2023-07-20T11:09:38;26.70;97.90
21662;DHT22;10992;48.170;8.596;2023-07-20T11:12:11;26.20;98.00
21662;DHT22;10992;48.170;8.596;2023-07-20T11:17:13;27.00;97.60
21662;DHT22;10992;48.170;8.596;2023-07-20T11:19:41;27.60;96.40
21662;DHT22;10992;48.170;8.596;2023-07-20T11:22:10;27.50;95.90
21662;DHT22;10992;48.170;8.596;2023-07-20T11:24:40;28.70;96.40
21662;DHT22;10992;48.170;8.596;2023-07-20T11:27:07;28.40;95.70
21662;DHT22;10992;48.170;8.596;2023-07-20T11:29:37;28.80;95.60
21662;DHT22;10992;48.170;8.596;2023-07-20T11:32:04;29.10;95.50
21662;DHT22;10992;48.170;8.596;2023-07-20T11:34:34;28.80;95.40
21662;DHT22;10992;48.170;8.596;2023-07-20T11:37:01;28.70;95.10
21662;DHT22;10992;48.170;8.596;2023-07-20T11:39:32;28.00;95.20
21662;DHT22;10992;48.170;8.596;2023-07-20T11:41:59;27.80;95.60
21662;DHT22;10992;48.170;8.596;2023-07-20T11:44:27;26.90;96.80
21662;DHT22;10992;48.170;8.596;2023-07-20T11:47:07;26.80;96.10
21662;DHT22;10992;48.170;8.596;2023-07-20T11:49:40;27.00;96.70
21662;DHT22;10992;48.170;8.596;2023-07-20T11:52:08;27.60;96.10
21662;DHT22;10992;48.170;8.596;2023-07-20T11:54:38;27.20;95.70
21662;DHT22;10992;48.170;8.596;2023-07-20T11:57:05;27.90;95.80
21662;DHT22;10992;48.170;8.596;2023-07-20T11:59:33;27.30;95.80
21662;DHT22;10992;48.170;8.596;2023-07-20T12:02:03;27.10;96.80
21662;DHT22;10992;48.170;8.596;2023-07-20T12:04:33;28.00;96.30
21662;DHT22;10992;48.170;8.596;2023-07-20T12:07:00;29.20;95.40
21662;DHT22;10992;48.170;8.596;2023-07-20T12:09:28;28.90;94.00
21662;DHT22;10992;48.170;8.596;2023-07-20T12:12:12;28.60;94.80
21662;DHT22;10992;48.170;8.596;2023-07-20T12:14:39;28.00;95.30
21662;DHT22;10992;48.170;8.596;2023-07-20T12:17:08;28.60;95.00
21662;DHT22;10992;48.170;8.596;2023-07-20T12:19:38;29.40;94.70
21662;DHT22;10992;48.170;8.596;2023-07-20T12:22:06;29.80;94.20
21662;DHT22;10992;48.170;8.596;2023-07-20T12:24:33;29.30;95.20
21662;DHT22;10992;48.170;8.596;2023-07-20T12:27:00;29.20;93.90
21662;DHT22;10992;48.170;8.596;2023-07-20T12:29:27;28.40;93.90
21662;DHT22;10992;48.170;8.596;2023-07-20T12:31:54;28.60;94.10
21662;DHT22;10992;48.170;8.596;2023-07-20T12:34:21;28.80;94.20
21662;DHT22;10992;48.170;8.596;2023-07-20T12:36:48;28.80;94.30
21662;DHT22;10992;48.170;8.596;2023-07-20T12:39:15;28.50;94.00
21662;DHT22;10992;48.170;8.596;2023-07-20T12:41:42;29.00;93.50
21662;DHT22;10992;48.170;8.596;2023-07-20T12:44:09;29.00;92.70
21662;DHT22;10992;48.170;8.596;2023-07-20T12:46:36;29.20;93.10
21662;DHT22;10992;48.170;8.596;2023-07-20T12:49:05;28.80;92.90
21662;DHT22;10992;48.170;8.596;2023-07-20T12:51:32;29.20;94.60
21662;DHT22;10992;48.170;8.596;2023-07-20T12:53:59;29.50;93.40
21662;DHT22;10992;48.170;8.596;2023-07-20T12:56:26;29.30;92.50
21662;DHT22;10992;48.170;8.596;2023-07-20T12:58:56;29.50;92.70
21662;DHT22;10992;48.170;8.596;2023-07-20T13:01:23;29.10;91.20
21662;DHT22;10992;48.170;8.596;2023-07-20T13:03:51;29.10;91.90
21662;DHT22;10992;48.170;8.596;2023-07-20T13:06:20;29.10;92.30
21662;DHT22;10992;48.170;8.596;2023-07-20T13:08:51;28.30;92.40
21662;DHT22;10992;48.170;8.596;2023-07-20T13:11:22;28.70;94.00
21662;DHT22;10992;48.170;8.596;2023-07-20T13:13:49;29.10;92.90
21662;DHT22;10992;48.170;8.596;2023-07-20T13:16:16;28.50;93.20
21662;DHT22;10992;48.170;8.596;2023-07-20T13:18:43;28.80;93.10
21662;DHT22;10992;48.170;8.596;2023-07-20T13:21:10;28.70;92.30
21662;DHT22;10992;48.170;8.596;2023-07-20T13:23:39;28.50;93.70
21662;DHT22;10992;48.170;8.596;2023-07-20T13:26:06;28.60;93.20
21662;DHT22;10992;48.170;8.596;2023-07-20T13:28:35;28.70;91.50
21662;DHT22;10992;48.170;8.596;2023-07-20T13:31:01;28.10;93.10
21662;DHT22;10992;48.170;8.596;2023-07-20T13:33:28;28.40;93.50
21662;DHT22;10992;48.170;8.596;2023-07-20T13:35:56;28.60;92.30
21662;DHT22;10992;48.170;8.596;2023-07-20T13:38:23;27.70;91.80
21662;DHT22;10992;48.170;8.596;2023-07-20T13:40:50;27.80;93.10
21662;DHT22;10992;48.170;8.596;2023-07-20T13:43:16;28.00;91.60
21662;DHT22;10992;48.170;8.596;2023-07-20T13:45:44;28.60;92.30
21662;DHT22;10992;48.170;8.596;2023-07-20T13:48:11;28.50;92.50
21662;DHT22;10992;48.170;8.596;2023-07-20T13:50:38;28.10;92.30
21662;DHT22;10992;48.170;8.596;2023-07-20T13:53:25;27.90;93.10
21662;DHT22;10992;48.170;8.596;2023-07-20T13:55:55;28.50;93.40
21662;DHT22;10992;48.170;8.596;2023-07-20T13:58:26;27.90;92.30
21662;DHT22;10992;48.170;8.596;2023-07-20T14:00:53;27.80;93.10
21662;DHT22;10992;48.170;8.596;2023-07-20T14:03:21;28.00;92.40
21662;DHT22;10992;48.170;8.596;2023-07-20T14:05:50;28.20;91.60
21662;DHT22;10992;48.170;8.596;2023-07-20T14:08:20;27.70;92.70
21662;DHT22;10992;48.170;8.596;2023-07-20T14:10:48;28.00;92.30
21662;DHT22;10992;48.170;8.596;2023-07-20T14:13:17;28.10;92.50
21662;DHT22;10992;48.170;8.596;2023-07-20T14:15:44;27.50;92.10
21662;DHT22;10992;48.170;8.596;2023-07-20T14:18:11;27.10;92.60
21662;DHT22;10992;48.170;8.596;2023-07-20T14:20:38;27.00;94.00
21662;DHT22;10992;48.170;8.596;2023-07-20T14:23:06;27.40;94.30
21662;DHT22;10992;48.170;8.596;2023-07-20T14:25:34;27.50;92.40
21662;DHT22;10992;48.170;8.596;2023-07-20T14:28:04;28.40;93.10
21662;DHT22;10992;48.170;8.596;2023-07-20T14:30:30;28.70;92.10
21662;DHT22;10992;48.170;8.596;2023-07-20T14:32:57;28.60;91.50
21662;DHT22;10992;48.170;8.596;2023-07-20T14:35:25;28.80;90.80
21662;DHT22;10992;48.170;8.596;2023-07-20T14:37:52;28.50;92.70
21662;DHT22;10992;48.170;8.596;2023-07-20T14:40:19;28.50;92.30
21662;DHT22;10992;48.170;8.596;2023-07-20T14:42:46;28.60;91.50
21662;DHT22;10992;48.170;8.596;2023-07-20T14:45:13;28.60;92.20
21662;DHT22;10992;48.170;8.596;2023-07-20T14:47:40;27.60;92.30
21662;DHT22;10992;48.170;8.596;2023-07-20T14:50:08;27.50;93.10
21662;DHT22;10992;48.170;8.596;2023-07-20T14:52:35;27.20;92.90
21662;DHT22;10992;48.170;8.596;2023-07-20T14:55:03;27.10;92.30
21662;DHT22;10992;48.170;8.596;2023-07-20T14:57:30;27.30;94.20
21662;DHT22;10992;48.170;8.596;2023-07-20T14:59:57;27.70;92.70
21662;DHT22;10992;48.170;8.596;2023-07-20T15:02:24;27.40;92.90
21662;DHT22;10992;48.170;8.596;2023-07-20T15:04:51;27.10;93.00
21662;DHT22;10992;48.170;8.596;2023-07-20T15:07:20;26.40;93.20
21662;DHT22;10992;48.170;8.596;2023-07-20T15:09:48;25.70;94.30
21662;DHT22;10992;48.170;8.596;2023-07-20T15:12:15;25.50;94.00
21662;DHT22;10992;48.170;8.596;2023-07-20T15:14:42;25.40;95.20
21662;DHT22;10992;48.170;8.596;2023-07-20T15:17:10;25.60;96.40
21662;DHT22;10992;48.170;8.596;2023-07-20T15:19:37;25.40;94.70
21662;DHT22;10992;48.170;8.596;2023-07-20T15:22:05;25.40;96.10
21662;DHT22;10992;48.170;8.596;2023-07-20T15:24:35;25.50;94.40
21662;DHT22;10992;48.170;8.596;2023-07-20T15:27:03;25.50;95.30
21662;DHT22;10992;48.170;8.596;2023-07-20T15:29:30;25.50;94.50
21662;DHT22;10992;48.170;8.596;2023-07-20T15:32:00;25.50;94.90
21662;DHT22;10992;48.170;8.596;2023-07-20T15:34:27;25.50;94.30
21662;DHT22;10992;48.170;8.596;2023-07-20T15:36:54;25.20;95.20
21662;DHT22;10992;48.170;8.596;2023-07-20T15:39:21;24.80;95.40
21662;DHT22;10992;48.170;8.596;2023-07-20T15:41:50;24.90;94.90
21662;DHT22;10992;48.170;8.596;2023-07-20T15:44:17;25.20;95.00
21662;DHT22;10992;48.170;8.596;2023-07-20T15:46:46;25.00;94.60
21662;DHT22;10992;48.170;8.596;2023-07-20T15:49:15;24.70;95.20
21662;DHT22;10992;48.170;8.596;2023-07-20T15:51:43;24.60;96.60
21662;DHT22;10992;48.170;8.596;2023-07-20T15:54:13;24.50;96.60
21662;DHT22;10992;48.170;8.596;2023-07-20T15:56:41;24.40;96.80
21662;DHT22;10992;48.170;8.596;2023-07-20T15:59:10;24.10;96.30